createdAt,value
2022-12-09T00:02:11.740Z,17.30
2022-12-09T00:04:42.404Z,16.13
2022-12-09T00:07:10.899Z,16.75
2022-12-09T00:09:38.985Z,16.27
2022-12-09T00:12:08.817Z,15.00
2022-12-09T00:14:38.501Z,15.13
2022-12-09T00:17:06.945Z,15.48
2022-12-09T00:19:35.759Z,15.98
2022-12-09T00:22:04.436Z,13.43
2022-12-09T00:24:32.560Z,14.30
2022-12-09T00:27:00.976Z,15.53
2022-12-09T00:29:29.159Z,14.25
2022-12-09T00:31:58.940Z,13.70
2022-12-09T00:34:27.055Z,14.00
2022-12-09T00:36:55.643Z,13.18
2022-12-09T00:39:23.747Z,15.48
2022-12-09T00:41:52.397Z,15.00
2022-12-09T00:44:21.107Z,13.87
2022-12-09T00:46:49.620Z,14.05
2022-12-09T00:49:19.491Z,13.52
2022-12-09T00:51:48.010Z,13.70
2022-12-09T00:54:16.177Z,12.43
2022-12-09T00:56:44.627Z,13.48
2022-12-09T00:59:12.709Z,14.20
2022-12-09T01:01:41.380Z,14.00
2022-12-09T01:04:09.763Z,12.50
2022-12-09T01:06:39.605Z,13.05
2022-12-09T01:09:08.008Z,12.93
2022-12-09T01:11:36.708Z,12.18
2022-12-09T01:14:05.444Z,13.05
2022-12-09T01:16:35.836Z,12.70
2022-12-09T01:19:07.406Z,13.00
2022-12-09T01:21:36.755Z,12.68
2022-12-09T01:24:09.644Z,12.85
2022-12-09T01:26:39.230Z,13.15
2022-12-09T01:29:07.894Z,12.55
2022-12-09T01:31:37.489Z,12.95
2022-12-09T01:34:05.814Z,13.70
2022-12-09T01:36:34.321Z,11.60
2022-12-09T01:39:02.841Z,11.90
2022-12-09T01:41:32.650Z,12.63
2022-12-09T01:44:19.740Z,12.45
2022-12-09T01:46:48.877Z,12.10
2022-12-09T01:49:23.887Z,10.85
2022-12-09T01:51:59.672Z,13.00
2022-12-09T01:54:28.089Z,13.23
2022-12-09T01:56:58.580Z,12.20
2022-12-09T01:59:27.665Z,12.85
2022-12-09T02:04:29.957Z,12.77
2022-12-09T02:07:01.567Z,12.00
2022-12-09T02:09:30.112Z,12.95
2022-12-09T02:12:13.053Z,11.82
2022-12-09T02:14:44.130Z,11.23
2022-12-09T02:17:28.071Z,11.63
2022-12-09T02:20:05.789Z,11.70
2022-12-09T02:22:39.640Z,11.70
2022-12-09T02:25:19.384Z,12.45
2022-12-09T02:28:00.376Z,11.55
2022-12-09T02:30:34.614Z,11.80
2022-12-09T02:33:19.961Z,11.63
2022-12-09T02:35:55.041Z,11.38
2022-12-09T02:38:27.641Z,11.07
2022-12-09T02:41:01.540Z,10.73
2022-12-09T02:43:34.484Z,11.75
2022-12-09T02:46:04.234Z,10.90
2022-12-09T02:48:37.976Z,8.57
2022-12-09T02:51:10.754Z,8.18
2022-12-09T02:53:41.453Z,11.80
2022-12-09T02:56:11.582Z,10.80
2022-12-09T02:58:40.216Z,9.40
2022-12-09T03:01:22.149Z,10.27
2022-12-09T03:03:52.647Z,10.45
2022-12-09T03:06:27.255Z,10.57
2022-12-09T03:09:03.332Z,9.75
2022-12-09T03:11:33.874Z,11.25
2022-12-09T03:14:07.946Z,10.10
2022-12-09T03:16:39.214Z,10.95
2022-12-09T03:19:14.066Z,11.02
2022-12-09T03:21:47.686Z,10.55
2022-12-09T03:24:19.634Z,10.32
2022-12-09T03:26:51.086Z,12.05
2022-12-09T03:29:22.744Z,10.82
2022-12-09T03:31:53.947Z,11.05
2022-12-09T03:34:27.375Z,10.02
2022-12-09T03:36:59.504Z,10.15
2022-12-09T03:39:33.496Z,10.15
2022-12-09T03:42:05.122Z,10.63
2022-12-09T03:44:39.352Z,10.73
2022-12-09T03:47:09.924Z,10.05
2022-12-09T03:49:40.362Z,10.82
2022-12-09T03:52:16.839Z,10.48
2022-12-09T03:54:46.661Z,11.35
2022-12-09T03:57:19.242Z,11.40
2022-12-09T03:59:54.086Z,11.55
2022-12-09T04:02:22.802Z,10.30
2022-12-09T04:04:51.430Z,10.18
2022-12-09T04:07:21.452Z,10.35
2022-12-09T04:09:50.058Z,9.27
2022-12-09T04:12:18.322Z,10.43
2022-12-09T04:14:47.100Z,9.95
2022-12-09T04:17:15.464Z,9.25
2022-12-09T04:19:43.902Z,10.30
2022-12-09T04:22:12.207Z,9.13
2022-12-09T04:24:42.183Z,9.75
2022-12-09T04:27:11.893Z,12.85
2022-12-09T04:29:40.633Z,17.40
2022-12-09T04:32:09.000Z,18.33
2022-12-09T04:34:38.378Z,13.95
2022-12-09T04:37:06.596Z,12.00
2022-12-09T04:39:35.381Z,10.75
2022-12-09T04:42:05.137Z,10.15
2022-12-09T04:44:33.587Z,10.18
2022-12-09T04:47:02.006Z,9.93
2022-12-09T04:49:30.971Z,9.73
2022-12-09T04:51:59.436Z,9.18
2022-12-09T04:54:27.850Z,9.30
2022-12-09T04:56:56.298Z,8.75
2022-12-09T04:59:26.289Z,9.93
2022-12-09T05:01:54.740Z,9.13
2022-12-09T05:04:23.296Z,10.20
2022-12-09T05:06:51.956Z,10.30
2022-12-09T05:09:20.633Z,9.32
2022-12-09T05:11:49.619Z,8.65
2022-12-09T05:14:18.590Z,8.60
2022-12-09T05:16:48.303Z,9.82
2022-12-09T05:19:17.348Z,9.43
2022-12-09T05:21:46.394Z,8.15
2022-12-09T05:26:44.007Z,6.75
2022-12-09T05:29:15.573Z,7.60
2022-12-09T05:31:49.326Z,7.17
2022-12-09T05:34:18.229Z,7.03
2022-12-09T05:36:46.868Z,7.28
2022-12-09T05:39:15.392Z,7.47
2022-12-09T05:41:43.543Z,7.00
2022-12-09T05:44:12.921Z,8.38
2022-12-09T05:49:11.193Z,8.13
2022-12-09T05:51:39.726Z,8.27
2022-12-09T05:54:08.560Z,9.88
2022-12-09T05:56:38.081Z,8.50
2022-12-09T05:59:08.780Z,8.43
2022-12-09T06:01:37.090Z,8.27
2022-12-09T06:04:05.910Z,8.07
2022-12-09T06:06:36.020Z,7.05
2022-12-09T06:09:08.646Z,8.83
2022-12-09T06:11:36.945Z,7.73
2022-12-09T06:14:05.537Z,7.95
2022-12-09T06:16:34.170Z,7.37
2022-12-09T06:19:02.879Z,8.73
2022-12-09T06:21:31.680Z,10.15
2022-12-09T06:24:01.927Z,9.52
2022-12-09T06:26:31.332Z,9.60
2022-12-09T06:29:00.586Z,8.10
2022-12-09T06:31:30.348Z,9.55
2022-12-09T06:34:00.040Z,10.77
2022-12-09T06:36:30.316Z,9.75
2022-12-09T06:39:07.644Z,9.10
2022-12-09T06:41:41.378Z,9.85
2022-12-09T06:44:11.694Z,9.82
2022-12-09T06:46:40.669Z,9.13
2022-12-09T06:49:10.383Z,9.82
2022-12-09T06:54:09.770Z,9.27
2022-12-09T06:56:39.938Z,8.80
2022-12-09T06:59:09.479Z,8.17
2022-12-09T07:04:08.421Z,8.40
2022-12-09T07:06:39.461Z,8.47
2022-12-09T07:09:10.439Z,8.33
2022-12-09T07:11:42.392Z,7.77
2022-12-09T07:14:11.720Z,8.23
2022-12-09T07:16:40.670Z,9.18
2022-12-09T07:19:09.560Z,8.60
2022-12-09T07:21:38.368Z,7.35
2022-12-09T07:24:07.701Z,7.25
2022-12-09T07:26:35.920Z,9.40
2022-12-09T07:29:06.732Z,8.65
2022-12-09T07:31:35.955Z,8.60
2022-12-09T07:34:06.388Z,9.00
2022-12-09T07:36:37.956Z,9.73
2022-12-09T07:39:09.099Z,9.18
2022-12-09T07:41:37.566Z,9.70
2022-12-09T07:44:07.464Z,9.93
2022-12-09T07:46:35.852Z,9.40
2022-12-09T07:49:06.359Z,9.85
2022-12-09T07:51:35.847Z,10.03
2022-12-09T07:54:05.478Z,10.07
2022-12-09T07:56:34.417Z,10.65
2022-12-09T07:59:03.055Z,12.68
2022-12-09T08:01:33.090Z,12.88
2022-12-09T08:04:02.600Z,13.43
2022-12-09T08:09:01.593Z,12.82
2022-12-09T08:11:31.926Z,10.20
2022-12-09T08:14:08.965Z,12.23
2022-12-09T08:16:42.061Z,11.70
2022-12-09T08:19:12.333Z,12.52
2022-12-09T08:21:40.960Z,13.63
2022-12-09T08:24:13.778Z,15.15
2022-12-09T08:29:14.270Z,13.10
2022-12-09T08:31:45.414Z,13.57
2022-12-09T08:34:15.209Z,13.38
2022-12-09T08:36:45.058Z,14.25
2022-12-09T08:39:14.998Z,13.52
2022-12-09T08:41:45.386Z,14.95
2022-12-09T08:44:16.292Z,14.60
2022-12-09T08:46:48.398Z,15.23
2022-12-09T08:49:20.291Z,14.85
2022-12-09T08:51:50.203Z,13.85
2022-12-09T08:54:19.287Z,16.23
2022-12-09T08:56:49.243Z,14.70
2022-12-09T08:59:18.810Z,15.73
2022-12-09T09:01:49.520Z,15.65
2022-12-09T09:04:21.864Z,15.30
2022-12-09T09:06:51.962Z,15.85
2022-12-09T09:09:22.401Z,18.35
2022-12-09T09:11:51.107Z,15.38
2022-12-09T09:14:20.068Z,16.80
2022-12-09T09:16:49.999Z,14.43
2022-12-09T09:19:20.996Z,15.65
2022-12-09T09:21:50.002Z,14.18
2022-12-09T09:24:20.236Z,16.00
2022-12-09T09:26:50.986Z,15.68
2022-12-09T09:29:21.491Z,14.55
2022-12-09T09:31:56.208Z,16.50
2022-12-09T09:34:26.115Z,15.88
2022-12-09T09:36:55.089Z,17.20
2022-12-09T09:39:24.780Z,19.58
2022-12-09T09:41:55.442Z,18.77
2022-12-09T09:44:28.902Z,17.65
2022-12-09T09:46:59.485Z,16.95
2022-12-09T09:49:36.456Z,17.52
2022-12-09T09:52:08.732Z,17.92
2022-12-09T09:54:37.867Z,17.38
2022-12-09T09:57:14.299Z,18.52
2022-12-09T10:00:09.990Z,17.42
2022-12-09T10:02:56.950Z,16.98
2022-12-09T10:05:30.483Z,18.27
2022-12-09T10:08:23.012Z,17.83
2022-12-09T10:10:59.569Z,18.10
2022-12-09T10:13:40.033Z,16.55
2022-12-09T10:16:15.696Z,14.85
2022-12-09T10:19:01.280Z,15.55
2022-12-09T10:21:36.233Z,15.27
2022-12-09T10:24:18.318Z,14.95
2022-12-09T10:26:58.462Z,16.38
2022-12-09T10:29:44.604Z,15.40
2022-12-09T10:32:17.878Z,15.02
2022-12-09T10:34:48.780Z,13.43
2022-12-09T10:37:26.937Z,14.43
2022-12-09T10:40:03.393Z,15.82
2022-12-09T10:42:53.003Z,14.27
2022-12-09T10:47:53.840Z,12.15
2022-12-09T10:50:43.005Z,12.13
2022-12-09T10:53:15.892Z,13.20
2022-12-09T10:55:52.078Z,13.60
2022-12-09T10:58:23.078Z,14.95
2022-12-09T11:01:07.861Z,14.68
2022-12-09T11:03:39.728Z,14.82
2022-12-09T11:06:23.684Z,15.70
2022-12-09T11:08:56.758Z,13.68
2022-12-09T11:11:42.083Z,15.32
2022-12-09T11:14:25.745Z,14.55
2022-12-09T11:16:56.417Z,14.63
2022-12-09T11:19:34.121Z,14.73
2022-12-09T11:22:24.987Z,14.40
2022-12-09T11:24:56.679Z,13.32
2022-12-09T11:27:31.257Z,14.40
2022-12-09T11:30:15.853Z,14.32
2022-12-09T11:33:01.103Z,13.63
2022-12-09T11:35:39.237Z,13.75
2022-12-09T11:38:27.631Z,14.20
2022-12-09T11:41:03.129Z,14.38
2022-12-09T11:43:35.132Z,14.00
2022-12-09T11:46:19.692Z,14.57
2022-12-09T11:48:55.954Z,13.50
2022-12-09T11:51:30.075Z,14.55
2022-12-09T11:54:03.886Z,15.10
2022-12-09T11:56:35.893Z,15.35
2022-12-09T11:59:10.209Z,16.55
2022-12-09T12:01:48.337Z,15.55
2022-12-09T12:04:19.725Z,15.82
2022-12-09T12:06:50.331Z,14.40
2022-12-09T12:09:25.688Z,12.32
2022-12-09T12:12:02.144Z,12.73
2022-12-09T12:14:31.575Z,11.15
2022-12-09T12:17:16.698Z,12.57
2022-12-09T12:19:49.434Z,12.00
2022-12-09T12:22:34.539Z,11.38
2022-12-09T12:25:18.432Z,11.43
2022-12-09T12:28:08.585Z,11.02
2022-12-09T12:36:30.334Z,9.75
2022-12-09T12:39:07.179Z,10.95
2022-12-09T12:41:50.113Z,11.68
2022-12-09T12:44:58.485Z,13.07
2022-12-09T12:47:35.640Z,12.18
2022-12-09T12:50:30.923Z,13.25
2022-12-09T12:53:07.111Z,12.38
2022-12-09T12:55:48.963Z,12.40
2022-12-09T12:58:32.679Z,12.23
2022-12-09T13:01:08.994Z,13.43
2022-12-09T13:03:45.982Z,13.82
2022-12-09T13:06:17.674Z,12.68
2022-12-09T13:08:59.736Z,12.60
2022-12-09T13:11:38.589Z,12.35
2022-12-09T13:14:15.549Z,11.93
2022-12-09T13:16:45.917Z,13.70
2022-12-09T13:19:19.925Z,12.40
2022-12-09T13:21:48.974Z,16.40
2022-12-09T13:24:27.172Z,14.40
2022-12-09T13:27:01.541Z,12.43
2022-12-09T13:29:40.971Z,10.80
2022-12-09T13:32:23.894Z,10.02
2022-12-09T13:34:57.000Z,9.95
2022-12-09T13:37:56.089Z,11.07
2022-12-09T13:40:35.682Z,10.57
2022-12-09T13:43:22.347Z,10.70
2022-12-09T13:45:56.470Z,10.50
2022-12-09T13:48:47.839Z,10.00
2022-12-09T13:51:17.516Z,9.73
2022-12-09T13:53:51.514Z,10.40
2022-12-09T13:56:24.133Z,10.02
2022-12-09T13:59:13.712Z,9.95
2022-12-09T14:01:49.496Z,10.60
2022-12-09T14:04:22.564Z,10.63
2022-12-09T14:06:57.241Z,11.50
2022-12-09T14:09:41.205Z,13.43
2022-12-09T14:12:13.780Z,13.85
2022-12-09T14:14:52.787Z,12.63
2022-12-09T14:17:57.994Z,14.05
2022-12-09T14:20:29.289Z,13.98
2022-12-09T14:23:12.695Z,11.65
2022-12-09T14:25:57.444Z,11.93
2022-12-09T14:28:42.306Z,13.63
2022-12-09T14:31:10.776Z,12.23
2022-12-09T14:33:44.129Z,13.05
2022-12-09T14:36:28.152Z,13.07
2022-12-09T14:39:23.575Z,15.85
2022-12-09T14:41:56.566Z,14.73
2022-12-09T14:44:32.178Z,13.23
2022-12-09T14:47:16.868Z,19.30
2022-12-09T14:49:49.520Z,12.90
2022-12-09T14:52:25.670Z,12.82
2022-12-09T14:54:55.897Z,12.77
2022-12-09T14:57:27.311Z,14.00
2022-12-09T14:59:57.586Z,13.63
2022-12-09T15:02:29.862Z,15.15
2022-12-09T15:05:01.799Z,18.45
2022-12-09T15:07:32.220Z,15.32
2022-12-09T15:10:02.402Z,14.80
2022-12-09T15:12:33.274Z,14.93
2022-12-09T15:15:06.779Z,15.15
2022-12-09T15:17:44.791Z,15.55
2022-12-09T15:20:25.678Z,14.25
2022-12-09T15:22:56.462Z,15.88
2022-12-09T15:25:26.155Z,15.57
2022-12-09T15:28:03.243Z,30.15
2022-12-09T15:30:34.415Z,33.50
2022-12-09T15:33:04.263Z,39.38
2022-12-09T15:35:34.521Z,30.58
2022-12-09T15:38:07.657Z,33.88
2022-12-09T15:40:38.162Z,29.38
2022-12-09T15:43:11.019Z,30.75
2022-12-09T15:45:43.763Z,28.75
2022-12-09T15:48:17.954Z,20.02
2022-12-09T15:50:51.837Z,17.27
2022-12-09T15:53:26.241Z,17.48
2022-12-09T15:55:58.015Z,19.02
2022-12-09T15:58:30.753Z,25.10
2022-12-09T16:00:59.405Z,26.05
2022-12-09T16:03:31.179Z,39.60
2022-12-09T16:06:03.550Z,40.30
2022-12-09T16:08:34.550Z,41.60
2022-12-09T16:11:03.359Z,44.63
2022-12-09T16:13:32.044Z,45.90
2022-12-09T16:16:02.584Z,46.92
2022-12-09T16:18:35.872Z,43.03
2022-12-09T16:21:22.650Z,42.95
2022-12-09T16:23:54.403Z,59.03
2022-12-09T16:26:28.260Z,45.58
2022-12-09T16:28:59.406Z,44.72
2022-12-09T16:31:27.990Z,41.28
2022-12-09T16:33:57.197Z,35.67
2022-12-09T16:36:28.927Z,33.53
2022-12-09T16:39:38.209Z,36.60
2022-12-09T16:42:20.381Z,32.67
2022-12-09T16:44:48.999Z,37.55
2022-12-09T16:47:19.002Z,33.13
2022-12-09T16:49:49.435Z,32.63
2022-12-09T16:52:22.769Z,29.25
2022-12-09T16:54:52.229Z,32.95
2022-12-09T16:57:21.421Z,33.45
2022-12-09T16:59:50.954Z,29.48
2022-12-09T17:02:25.176Z,26.35
2022-12-09T17:04:53.915Z,29.20
2022-12-09T17:07:23.410Z,33.47
2022-12-09T17:09:51.859Z,28.65
2022-12-09T17:12:20.048Z,26.33
2022-12-09T17:14:48.551Z,26.65
2022-12-09T17:17:16.700Z,30.40
2022-12-09T17:19:45.907Z,28.70
2022-12-09T17:22:14.260Z,27.00
2022-12-09T17:24:44.147Z,27.95
2022-12-09T17:27:12.209Z,27.45
2022-12-09T17:29:40.812Z,28.77
2022-12-09T17:32:09.140Z,28.98
2022-12-09T17:34:37.798Z,38.75
2022-12-09T17:37:05.923Z,35.67
2022-12-09T17:39:34.730Z,34.20
2022-12-09T17:42:04.712Z,39.47
2022-12-09T17:44:33.398Z,36.15
2022-12-09T17:47:01.530Z,33.35
2022-12-09T17:49:29.864Z,30.30
2022-12-09T17:51:58.096Z,29.98
2022-12-09T17:54:26.499Z,26.13
2022-12-09T17:56:54.665Z,26.83
2022-12-09T17:59:24.353Z,28.37
2022-12-09T18:04:21.702Z,23.77
2022-12-09T18:06:50.573Z,23.92
2022-12-09T18:09:20.299Z,24.95
2022-12-09T18:14:17.368Z,30.80
2022-12-09T18:16:49.265Z,33.45
2022-12-09T18:19:20.347Z,23.42
2022-12-09T18:21:50.057Z,22.00
2022-12-09T18:24:18.889Z,22.70
2022-12-09T18:26:46.968Z,22.60
2022-12-09T18:29:15.554Z,27.93
2022-12-09T18:31:45.817Z,24.33
2022-12-09T18:34:15.726Z,26.30
2022-12-09T18:36:43.877Z,22.85
2022-12-09T18:39:16.223Z,22.88
2022-12-09T18:41:45.906Z,27.63
2022-12-09T18:44:17.170Z,24.88
2022-12-09T18:46:47.387Z,23.70
2022-12-09T18:49:20.873Z,31.50
2022-12-09T18:51:50.451Z,28.00
2022-12-09T18:54:20.867Z,25.92
2022-12-09T18:56:49.245Z,25.52
2022-12-09T18:59:18.371Z,25.25
2022-12-09T19:01:48.308Z,24.27
2022-12-09T19:04:20.769Z,25.10
2022-12-09T19:06:53.064Z,25.70
2022-12-09T19:09:23.512Z,24.35
2022-12-09T19:11:53.204Z,25.23
2022-12-09T19:14:23.333Z,26.05
2022-12-09T19:16:52.261Z,24.65
2022-12-09T19:19:25.490Z,42.90
2022-12-09T19:21:55.337Z,27.67
2022-12-09T19:24:25.466Z,27.80
2022-12-09T19:26:55.694Z,27.80
2022-12-09T19:29:25.894Z,26.63
2022-12-09T19:31:56.868Z,28.00
2022-12-09T19:34:32.674Z,25.25
2022-12-09T19:37:02.071Z,26.33
2022-12-09T19:39:31.933Z,26.23
2022-12-09T19:42:05.594Z,25.95
2022-12-09T19:47:22.525Z,26.92
2022-12-09T19:49:52.529Z,26.17
2022-12-09T19:52:20.650Z,27.77
2022-12-09T19:54:49.030Z,31.15
2022-12-09T19:57:19.512Z,27.42
2022-12-09T19:59:48.442Z,23.73
2022-12-09T20:02:16.859Z,23.77
2022-12-09T20:04:50.324Z,24.95
2022-12-09T20:07:20.827Z,23.77
2022-12-09T20:09:53.556Z,22.75
2022-12-09T20:12:21.739Z,24.90
2022-12-09T20:14:50.158Z,19.90
2022-12-09T20:17:18.554Z,31.67
2022-12-09T20:19:48.965Z,26.75
2022-12-09T20:22:17.025Z,25.17
2022-12-09T20:24:46.746Z,25.83
2022-12-09T20:29:43.108Z,23.75
2022-12-09T20:32:12.899Z,25.23
2022-12-09T20:34:41.570Z,28.33
2022-12-09T20:37:12.091Z,27.67
2022-12-09T20:39:40.555Z,26.42
2022-12-09T20:42:10.430Z,28.73
2022-12-09T20:44:38.761Z,28.45
2022-12-09T20:47:07.202Z,29.20
2022-12-09T20:49:35.529Z,27.70
2022-12-09T20:52:04.947Z,27.10
2022-12-09T20:54:36.066Z,27.48
2022-12-09T20:57:04.194Z,29.33
2022-12-09T20:59:34.112Z,29.67
2022-12-09T21:02:02.248Z,32.22
2022-12-09T21:04:30.721Z,28.77
2022-12-09T21:06:58.897Z,29.65
2022-12-09T21:09:29.587Z,24.77
2022-12-09T21:11:58.597Z,29.17
2022-12-09T21:14:32.580Z,27.25
2022-12-09T21:17:03.546Z,28.10
2022-12-09T21:19:32.566Z,28.55
2022-12-09T21:22:01.988Z,28.65
2022-12-09T21:24:30.346Z,25.60
2022-12-09T21:26:58.571Z,25.77
2022-12-09T21:29:31.970Z,26.10
2022-12-09T21:32:02.757Z,25.77
2022-12-09T21:34:31.516Z,26.38
2022-12-09T21:36:59.777Z,24.90
2022-12-09T21:39:29.226Z,27.08
2022-12-09T21:41:57.371Z,25.23
2022-12-09T21:44:27.208Z,24.97
2022-12-09T21:46:55.601Z,22.98
2022-12-09T21:49:25.629Z,22.02
2022-12-09T21:51:53.731Z,27.88
2022-12-09T21:54:22.355Z,26.67
2022-12-09T21:56:50.469Z,27.13
2022-12-09T21:59:18.909Z,26.70
2022-12-09T22:01:47.619Z,28.90
2022-12-09T22:04:17.546Z,29.10
2022-12-09T22:06:49.088Z,28.63
2022-12-09T22:09:20.788Z,27.85
2022-12-09T22:11:49.114Z,26.30
2022-12-09T22:14:17.614Z,29.13
2022-12-09T22:16:46.899Z,29.15
2022-12-09T22:19:21.008Z,29.83
2022-12-09T22:21:51.515Z,30.40
2022-12-09T22:24:19.906Z,29.92
2022-12-09T22:26:48.183Z,30.55
2022-12-09T22:29:17.845Z,29.77
2022-12-09T22:34:18.535Z,29.73
2022-12-09T22:36:47.422Z,28.13
2022-12-09T22:39:19.743Z,29.75
2022-12-09T22:41:47.952Z,30.42
2022-12-09T22:44:19.118Z,26.97
2022-12-09T22:46:47.759Z,27.08
2022-12-09T22:49:16.906Z,26.42
2022-12-09T22:51:46.303Z,27.73
2022-12-09T22:54:15.445Z,28.40
2022-12-09T22:56:45.196Z,31.88
2022-12-09T22:59:14.766Z,32.42
2022-12-09T23:01:45.332Z,30.77
2022-12-09T23:04:15.410Z,28.55
2022-12-09T23:06:44.056Z,30.13
2022-12-09T23:09:16.275Z,25.42
2022-12-09T23:11:46.397Z,26.05
2022-12-09T23:14:15.395Z,27.42
2022-12-09T23:16:43.909Z,27.83
2022-12-09T23:19:13.890Z,24.25
2022-12-09T23:21:43.176Z,25.60
2022-12-09T23:24:22.842Z,25.48
2022-12-09T23:26:55.441Z,24.50
2022-12-09T23:29:24.285Z,25.23
2022-12-09T23:31:52.638Z,27.17
2022-12-09T23:34:21.219Z,24.85
2022-12-09T23:36:49.396Z,23.73
2022-12-09T23:39:19.511Z,26.10
2022-12-09T23:41:48.139Z,25.05
2022-12-09T23:44:19.923Z,25.58
2022-12-09T23:46:48.684Z,25.98
2022-12-09T23:49:17.754Z,25.02
2022-12-09T23:51:46.150Z,25.67
2022-12-09T23:54:16.367Z,26.00
2022-12-09T23:56:49.583Z,24.67
2022-12-09T23:59:21.578Z,24.83
